Time;durP1;ratioP1;P1;durP2;ratioP2;P2;SDS_P1;SDS_P2;PMS_P1;PMS_P2;Temp;Humidity;BMP_temperature;BMP_pressure;BME280_temperature;BME280_humidity;BME280_pressure;Samples;Min_cycle;Max_cycle;Signal;HPM_P1;HPM_P2
2021/12/12 00:00:45;;;;;;;33.85;17.67;;;3.70;99.90;;;;;;4801525;29;20094;-79
2021/12/12 00:03:39;;;;;;;28.23;17.55;;;3.80;99.90;;;;;;4805360;29;20045;-79
2021/12/12 00:06:08;;;;;;;29.60;17.02;;;3.80;99.90;;;;;;4820830;29;20042;-79
2021/12/12 00:08:35;;;;;;;30.65;16.98;;;3.80;99.90;;;;;;4820620;29;20053;-80
2021/12/12 00:11:05;;;;;;;22.75;14.77;;;3.80;99.90;;;;;;4821308;29;20046;-80
2021/12/12 00:13:45;;;;;;;26.23;16.42;;;3.80;99.90;;;;;;4803281;29;20045;-80
2021/12/12 00:16:11;;;;;;;32.55;17.98;;;3.80;99.90;;;;;;4807953;29;20051;-80
2021/12/12 00:18:37;;;;;;;29.88;17.45;;;3.80;99.90;;;;;;4814374;29;20178;-80
2021/12/12 00:21:06;;;;;;;26.65;15.98;;;3.80;99.90;;;;;;4788762;29;20078;-80
2021/12/12 00:23:32;;;;;;;29.92;16.83;;;3.80;99.90;;;;;;4804397;29;20407;-80
2021/12/12 00:25:58;;;;;;;27.77;15.88;;;3.90;99.90;;;;;;4819823;29;20104;-80
2021/12/12 00:28:26;;;;;;;24.77;16.98;;;3.90;99.90;;;;;;4788424;29;20051;-79
2021/12/12 00:30:57;;;;;;;29.00;18.15;;;3.90;99.90;;;;;;4818726;29;20125;-82
2021/12/12 00:33:24;;;;;;;27.17;16.30;;;3.90;99.90;;;;;;4805750;29;20412;-79
2021/12/12 00:35:50;;;;;;;29.00;17.17;;;3.90;99.90;;;;;;4812224;29;20068;-80
2021/12/12 00:38:27;;;;;;;32.20;18.98;;;3.90;99.90;;;;;;4812472;29;20046;-79
2021/12/12 00:40:55;;;;;;;36.38;18.40;;;3.90;99.90;;;;;;4802636;29;20046;-79
2021/12/12 00:43:34;;;;;;;29.08;16.55;;;3.90;99.90;;;;;;4814425;29;20125;-79
2021/12/12 00:46:04;;;;;;;28.85;18.17;;;4.00;99.90;;;;;;4815961;29;20047;-79
2021/12/12 00:48:33;;;;;;;35.65;17.65;;;4.00;99.90;;;;;;4810041;29;20054;-79
2021/12/12 00:51:01;;;;;;;30.58;17.65;;;4.00;99.90;;;;;;4803157;29;20089;-79
2021/12/12 00:53:26;;;;;;;29.63;19.05;;;4.00;99.90;;;;;;4807572;29;20395;-79
2021/12/12 00:55:54;;;;;;;31.42;20.35;;;4.00;99.90;;;;;;4787871;29;20046;-80
2021/12/12 00:58:22;;;;;;;38.50;20.50;;;4.00;99.90;;;;;;4804855;29;20663;-79
2021/12/12 01:00:55;;;;;;;36.50;20.63;;;4.10;99.90;;;;;;4808397;29;20569;-79
2021/12/12 01:03:26;;;;;;;35.72;21.23;;;4.10;99.90;;;;;;4824816;29;20042;-79
2021/12/12 01:05:53;;;;;;;33.60;20.17;;;4.10;99.90;;;;;;4839038;29;20053;-80
2021/12/12 01:08:20;;;;;;;33.97;19.95;;;4.10;99.90;;;;;;4839313;29;20054;-80
2021/12/12 01:11:00;;;;;;;34.80;20.45;;;4.10;99.90;;;;;;4792463;29;20065;-80
2021/12/12 01:13:26;;;;;;;31.05;19.25;;;4.10;99.90;;;;;;4823257;29;20077;-81
2021/12/12 01:16:04;;;;;;;31.92;18.80;;;4.10;99.90;;;;;;4817564;29;20107;-80
2021/12/12 01:18:34;;;;;;;32.67;20.65;;;4.10;99.90;;;;;;4816176;29;20051;-79
2021/12/12 01:21:14;;;;;;;30.98;18.77;;;4.00;99.90;;;;;;4820494;29;20504;-79
2021/12/12 01:23:42;;;;;;;31.00;19.08;;;4.10;99.90;;;;;;4805746;29;20042;-79
2021/12/12 01:26:09;;;;;;;30.58;19.38;;;4.10;99.90;;;;;;4835912;29;20046;-79
2021/12/12 01:28:37;;;;;;;31.92;19.98;;;4.10;99.90;;;;;;4777347;29;20125;-79
2021/12/12 01:31:08;;;;;;;31.13;20.08;;;4.10;99.90;;;;;;4802754;29;20046;-79
2021/12/12 01:33:36;;;;;;;35.88;20.67;;;4.10;99.90;;;;;;4802010;29;20050;-80
2021/12/12 01:36:23;;;;;;;33.42;20.90;;;4.10;99.90;;;;;;4807246;29;20055;-80
2021/12/12 01:38:52;;;;;;;32.17;20.70;;;4.10;99.90;;;;;;4788798;29;20054;-82
2021/12/12 01:41:37;;;;;;;35.00;21.17;;;4.10;99.90;;;;;;4803286;29;20133;-80
2021/12/12 01:44:09;;;;;;;36.47;19.75;;;4.10;99.90;;;;;;4815656;29;20049;-81
2021/12/12 01:46:45;;;;;;;36.08;20.40;;;4.10;99.90;;;;;;4788494;29;20051;-85
2021/12/12 01:49:18;;;;;;;35.13;20.52;;;4.20;99.90;;;;;;4803635;29;20055;-85
2021/12/12 01:51:46;;;;;;;34.60;20.50;;;4.20;99.90;;;;;;4790389;29;20397;-85
2021/12/12 01:54:15;;;;;;;32.20;20.85;;;4.10;99.90;;;;;;4782053;29;20058;-86
2021/12/12 01:56:53;;;;;;;39.10;22.40;;;4.20;99.90;;;;;;4806301;29;20061;-86
2021/12/12 01:59:24;;;;;;;36.28;21.60;;;4.20;99.90;;;;;;4803298;29;20447;-86
2021/12/12 02:02:12;;;;;;;36.20;21.73;;;4.20;99.90;;;;;;4821703;29;20042;-86
2021/12/12 02:04:43;;;;;;;32.35;19.67;;;4.20;99.90;;;;;;4821460;29;20058;-86
2021/12/12 02:07:12;;;;;;;37.20;20.95;;;4.20;99.90;;;;;;4798049;29;20400;-82
2021/12/12 02:09:39;;;;;;;31.90;20.08;;;4.20;99.90;;;;;;4804113;29;20049;-82
2021/12/12 02:12:06;;;;;;;35.50;20.70;;;4.20;99.90;;;;;;4806635;29;20072;-82
2021/12/12 02:14:37;;;;;;;31.88;19.33;;;4.20;99.90;;;;;;4794291;29;20381;-82
2021/12/12 02:17:13;;;;;;;33.80;20.65;;;4.10;99.90;;;;;;4824409;29;20085;-82
2021/12/12 02:19:54;;;;;;;32.58;21.58;;;4.20;99.90;;;;;;4820085;29;20070;-83
2021/12/12 02:36:08;;;;;;;34.22;19.80;;;4.30;99.90;;;;;;4822783;29;20054;-83
2021/12/12 02:38:34;;;;;;;32.38;18.20;;;4.40;99.90;;;;;;4802456;29;20085;-83
2021/12/12 02:41:05;;;;;;;34.72;19.15;;;4.30;99.90;;;;;;4802999;29;20411;-83
2021/12/12 02:43:36;;;;;;;36.08;18.52;;;4.40;99.90;;;;;;4802985;29;20086;-83
2021/12/12 02:46:03;;;;;;;31.50;19.10;;;4.40;99.90;;;;;;4791819;29;20501;-84
2021/12/12 02:48:33;;;;;;;28.95;17.77;;;4.50;99.90;;;;;;4815738;29;20101;-87
2021/12/12 02:51:04;;;;;;;30.25;17.85;;;4.50;99.90;;;;;;4826197;29;20118;-84
2021/12/12 02:53:38;;;;;;;27.88;17.17;;;4.40;99.90;;;;;;4824250;29;20099;-84
2021/12/12 02:56:16;;;;;;;32.47;17.90;;;4.50;99.90;;;;;;4823219;29;20088;-84
2021/12/12 02:58:43;;;;;;;33.20;18.55;;;4.50;99.90;;;;;;4806338;29;20050;-87
2021/12/12 03:01:33;;;;;;;32.63;19.20;;;4.50;99.90;;;;;;4791632;29;20133;-88
2021/12/12 03:04:19;;;;;;;32.08;17.67;;;4.50;99.90;;;;;;4791216;29;20096;-87
2021/12/12 03:06:45;;;;;;;28.35;17.02;;;4.50;99.90;;;;;;4807437;29;20051;-88
2021/12/12 03:09:22;;;;;;;33.08;17.40;;;4.50;99.90;;;;;;4790819;29;20078;-88
2021/12/12 03:11:49;;;;;;;;;;;4.60;99.90;;;;;;4808770;29;20054;-87
2021/12/12 03:14:15;;;;;;;23.73;14.98;;;4.60;99.90;;;;;;4822885;29;19924;-82
2021/12/12 03:16:41;;;;;;;29.70;15.85;;;4.60;99.90;;;;;;4803907;29;20058;-79
2021/12/12 03:19:07;;;;;;;;;;;4.60;99.90;;;;;;4791064;29;20130;-80
2021/12/12 03:21:42;;;;;;;29.98;15.55;;;4.60;99.90;;;;;;4821159;29;20073;-81
2021/12/12 03:24:11;;;;;;;23.05;14.60;;;4.70;99.90;;;;;;4814158;29;20118;-80
2021/12/12 03:26:37;;;;;;;26.88;14.77;;;4.70;99.90;;;;;;4797439;29;20047;-80
2021/12/12 03:29:04;;;;;;;;;;;4.70;99.90;;;;;;4792420;29;20066;-81
2021/12/12 03:31:35;;;;;;;26.70;14.47;;;4.70;99.90;;;;;;4812135;29;19921;-81
2021/12/12 03:34:06;;;;;;;24.92;14.57;;;4.80;99.90;;;;;;4818347;29;20390;-81
2021/12/12 03:36:32;;;;;;;26.00;14.70;;;4.80;99.90;;;;;;4823781;29;20042;-85
2021/12/12 03:39:00;;;;;;;;;;;4.80;99.90;;;;;;4824029;29;20038;-85
2021/12/12 03:41:30;;;;;;;24.73;13.35;;;4.80;99.90;;;;;;4823875;29;20087;-85
2021/12/12 03:44:01;;;;;;;22.90;12.93;;;4.90;99.90;;;;;;4823781;29;20508;-85
2021/12/12 03:46:28;;;;;;;20.15;13.13;;;4.80;99.90;;;;;;4823668;29;20110;-86
2021/12/12 03:48:56;;;;;;;20.33;12.52;;;4.80;99.90;;;;;;4808947;29;20046;-86
2021/12/12 03:51:24;;;;;;;21.77;13.40;;;4.90;99.90;;;;;;4823153;29;20086;-84
2021/12/12 03:53:51;;;;;;;19.10;12.20;;;4.90;99.90;;;;;;4812823;29;20059;-86
2021/12/12 03:56:17;;;;;;;26.33;12.73;;;4.90;99.90;;;;;;4808116;29;20355;-87
2021/12/12 03:58:45;;;;;;;22.08;12.45;;;5.00;99.90;;;;;;4823679;29;20456;-85
2021/12/12 04:01:27;;;;;;;20.33;12.07;;;4.90;99.90;;;;;;4822499;29;20129;-79
2021/12/12 04:03:56;;;;;;;19.98;11.88;;;5.00;99.90;;;;;;4822002;29;20130;-81
2021/12/12 04:06:25;;;;;;;19.80;11.45;;;5.00;99.90;;;;;;4803182;29;20050;-81
2021/12/12 04:08:52;;;;;;;22.10;12.10;;;5.00;99.90;;;;;;4805339;29;20141;-79
2021/12/12 04:11:23;;;;;;;18.55;11.18;;;5.00;99.90;;;;;;4776759;29;20410;-79
2021/12/12 04:13:51;;;;;;;16.30;11.40;;;4.90;99.90;;;;;;4806677;29;20180;-80
2021/12/12 04:16:19;;;;;;;17.83;11.25;;;4.90;99.90;;;;;;4806983;29;20054;-85
2021/12/12 04:18:45;;;;;;;18.02;11.23;;;5.00;99.90;;;;;;4808245;29;20905;-86
2021/12/12 04:21:12;;;;;;;18.58;11.23;;;4.90;99.90;;;;;;4797765;29;20096;-80
2021/12/12 04:23:39;;;;;;;18.30;11.13;;;5.00;99.90;;;;;;4792816;29;20042;-79
2021/12/12 04:26:24;;;;;;;;;;;5.00;99.90;;;;;;4819429;29;20061;-79
2021/12/12 04:29:04;;;;;;;17.08;10.90;;;4.90;99.90;;;;;;4806176;29;19934;-79
2021/12/12 04:31:31;;;;;;;15.50;11.02;;;4.90;99.90;;;;;;4803958;29;20050;-79
2021/12/12 04:33:59;;;;;;;16.02;11.40;;;5.00;99.90;;;;;;4818284;29;20458;-79
2021/12/12 04:36:32;;;;;;;14.80;9.68;;;5.00;99.90;;;;;;4808155;29;20054;-79
2021/12/12 04:39:13;;;;;;;14.05;10.02;;;5.00;99.90;;;;;;4820832;29;20045;-79
2021/12/12 04:41:43;;;;;;;17.23;10.43;;;5.00;99.90;;;;;;4822318;29;20050;-85
2021/12/12 04:44:09;;;;;;;13.77;8.80;;;5.00;99.90;;;;;;4822650;29;20047;-85
2021/12/12 04:49:55;;;;;;;14.63;9.38;;;5.00;99.90;;;;;;4837584;29;20168;-85
2021/12/12 04:52:32;;;;;;;14.68;9.10;;;4.90;99.90;;;;;;4806347;29;20050;-78
2021/12/12 04:55:06;;;;;;;;;;;4.90;99.90;;;;;;4821035;29;20046;-78
2021/12/12 04:57:39;;;;;;;11.27;9.18;;;5.00;99.90;;;;;;4805278;29;19920;-78
2021/12/12 05:00:29;;;;;;;11.75;9.23;;;5.00;99.90;;;;;;4835147;29;20077;-78
2021/12/12 05:03:01;;;;;;;11.88;9.00;;;5.00;99.90;;;;;;4816080;29;20142;-84
2021/12/12 05:05:39;;;;;;;11.82;8.40;;;5.00;99.90;;;;;;4806666;29;20046;-85
2021/12/12 05:08:15;;;;;;;12.45;8.30;;;4.90;99.90;;;;;;4822189;29;20050;-85
2021/12/12 05:10:59;;;;;;;12.80;8.15;;;5.00;99.90;;;;;;4822268;29;20501;-84
2021/12/12 05:13:34;;;;;;;13.98;8.63;;;5.00;99.90;;;;;;4822355;29;20053;-84
2021/12/12 05:16:18;;;;;;;10.68;7.75;;;5.10;99.90;;;;;;4822143;29;20100;-85
2021/12/12 05:18:50;;;;;;;9.85;7.60;;;5.00;99.90;;;;;;4805811;29;20050;-78
2021/12/12 05:21:24;;;;;;;9.38;7.35;;;5.00;99.90;;;;;;4812228;29;20035;-77
2021/12/12 05:23:52;;;;;;;10.50;7.88;;;5.10;99.90;;;;;;4789108;29;20050;-78
2021/12/12 05:26:27;;;;;;;11.93;8.18;;;5.10;99.90;;;;;;4833766;29;20468;-78
2021/12/12 05:29:14;;;;;;;10.32;7.43;;;5.10;99.90;;;;;;4803288;29;20054;-84
2021/12/12 05:31:45;;;;;;;9.98;7.45;;;5.10;99.90;;;;;;4795778;29;20085;-84
2021/12/12 05:34:12;;;;;;;8.52;6.82;;;5.10;99.90;;;;;;4804153;29;20047;-78
2021/12/12 05:36:37;;;;;;;;;;;5.20;99.90;;;;;;4821514;29;20107;-85
2021/12/12 05:39:04;;;;;;;7.82;6.97;;;5.20;99.90;;;;;;4822152;29;19929;-84
2021/12/12 05:41:31;;;;;;;9.10;6.45;;;5.30;99.90;;;;;;4807110;29;20046;-85
2021/12/12 05:43:57;;;;;;;8.68;6.57;;;5.30;99.90;;;;;;4822302;29;20061;-84
2021/12/12 05:46:23;;;;;;;;;;;5.30;99.90;;;;;;4813737;29;20046;-83
2021/12/12 05:48:50;;;;;;;8.55;6.72;;;5.30;99.90;;;;;;4807063;29;19973;-83
2021/12/12 05:51:17;;;;;;;7.65;6.10;;;5.30;99.90;;;;;;4801740;29;20081;-82
2021/12/12 05:53:43;;;;;;;9.77;6.80;;;5.40;99.90;;;;;;4809658;29;20050;-83
2021/12/12 05:56:09;;;;;;;7.10;6.35;;;5.40;99.90;;;;;;4825135;29;20042;-85
2021/12/12 05:58:36;;;;;;;8.90;6.72;;;5.40;99.90;;;;;;4812568;29;20109;-77
2021/12/12 06:01:10;;;;;;;9.10;6.50;;;5.40;99.90;;;;;;4791328;29;20116;-77
2021/12/12 06:03:39;;;;;;;9.15;7.22;;;5.40;99.90;;;;;;4804928;29;20074;-77
2021/12/12 06:06:09;;;;;;;9.27;7.07;;;5.40;99.90;;;;;;4794437;29;20078;-77
2021/12/12 06:08:36;;;;;;;7.40;6.32;;;5.50;99.90;;;;;;4822843;29;20089;-77
2021/12/12 06:11:02;;;;;;;9.13;7.30;;;5.60;99.90;;;;;;4806969;29;20125;-77
2021/12/12 06:13:29;;;;;;;7.70;6.90;;;5.60;99.90;;;;;;4806766;29;20387;-76
2021/12/12 06:15:56;;;;;;;8.45;6.95;;;5.60;99.90;;;;;;4822473;29;20138;-77
2021/12/12 06:18:25;;;;;;;7.60;6.75;;;5.60;99.90;;;;;;4821235;29;20053;-77
2021/12/12 06:20:53;;;;;;;7.18;6.38;;;5.60;99.90;;;;;;4805724;29;20054;-83
2021/12/12 06:23:19;;;;;;;8.25;6.35;;;5.60;99.90;;;;;;4809450;29;20053;-83
2021/12/12 06:25:46;;;;;;;;;;;5.60;99.90;;;;;;4822508;29;20046;-78
2021/12/12 06:28:15;;;;;;;7.78;6.72;;;5.60;99.90;;;;;;4822518;29;19943;-77
2021/12/12 06:30:42;;;;;;;9.15;6.90;;;5.60;99.90;;;;;;4811025;29;20107;-78
2021/12/12 06:33:10;;;;;;;8.20;6.63;;;5.70;99.90;;;;;;4804852;29;20563;-78
2021/12/12 06:35:36;;;;;;;8.20;7.03;;;5.70;99.90;;;;;;4808280;29;20047;-78
2021/12/12 06:38:05;;;;;;;7.22;6.53;;;5.70;99.90;;;;;;4807461;29;20556;-78
2021/12/12 06:40:31;;;;;;;10.35;7.32;;;5.80;99.90;;;;;;4822399;29;20043;-78
2021/12/12 06:43:00;;;;;;;7.50;6.32;;;5.70;99.90;;;;;;4807530;29;20038;-77
2021/12/12 06:45:26;;;;;;;6.88;6.18;;;5.70;99.90;;;;;;4818769;29;20126;-78
2021/12/12 06:47:54;;;;;;;7.13;6.43;;;5.80;99.90;;;;;;4821401;29;20424;-78
2021/12/12 06:50:21;;;;;;;8.70;6.38;;;5.80;99.90;;;;;;4815629;29;20054;-77
2021/12/12 06:52:48;;;;;;;7.82;6.78;;;5.80;99.90;;;;;;4789348;29;20050;-77
2021/12/12 06:55:14;;;;;;;8.35;6.60;;;5.80;99.90;;;;;;4797846;29;20057;-78
2021/12/12 06:57:41;;;;;;;7.90;6.70;;;5.90;99.90;;;;;;4815783;29;20054;-77
2021/12/12 07:00:11;;;;;;;7.30;6.57;;;5.90;99.90;;;;;;4815281;29;20067;-77
2021/12/12 07:02:37;;;;;;;9.02;6.55;;;5.90;99.90;;;;;;4805026;29;20136;-77
2021/12/12 07:05:05;;;;;;;8.38;7.13;;;5.90;99.90;;;;;;4787654;29;20046;-77
2021/12/12 07:07:31;;;;;;;8.10;7.20;;;5.90;99.90;;;;;;4804036;29;20413;-77
2021/12/12 07:09:57;;;;;;;7.30;6.47;;;5.90;99.90;;;;;;4804130;29;20497;-77
2021/12/12 07:12:23;;;;;;;10.63;7.55;;;5.90;99.90;;;;;;4789962;29;20129;-77
2021/12/12 07:14:52;;;;;;;7.72;6.93;;;5.90;99.90;;;;;;4788621;29;20150;-77
2021/12/12 07:17:19;;;;;;;8.88;6.90;;;5.90;99.90;;;;;;4806973;29;20058;-77
2021/12/12 07:19:46;;;;;;;10.63;7.85;;;6.00;99.90;;;;;;4806129;29;20042;-77
2021/12/12 07:22:14;;;;;;;7.85;6.40;;;6.00;99.90;;;;;;4812902;29;20045;-82
2021/12/12 07:24:42;;;;;;;8.57;7.40;;;6.00;99.90;;;;;;4824277;29;20058;-82
2021/12/12 07:27:09;;;;;;;8.88;7.57;;;6.00;99.90;;;;;;4809803;29;20066;-83
2021/12/12 07:29:35;;;;;;;8.93;7.70;;;6.10;99.90;;;;;;4824063;29;20058;-84
2021/12/12 07:32:03;;;;;;;9.48;8.20;;;6.10;99.90;;;;;;4807182;29;20505;-83
2021/12/12 07:34:29;;;;;;;9.05;7.30;;;6.10;99.90;;;;;;4822209;29;20049;-82
2021/12/12 07:36:59;;;;;;;8.13;7.20;;;6.00;99.90;;;;;;4814376;29;20038;-83
2021/12/12 07:39:27;;;;;;;8.43;6.90;;;6.10;99.90;;;;;;4823773;29;20412;-83
2021/12/12 07:41:56;;;;;;;8.52;7.57;;;6.20;99.90;;;;;;4807128;29;20335;-83
2021/12/12 07:44:25;;;;;;;8.32;7.40;;;6.20;99.90;;;;;;4822918;29;20069;-83
2021/12/12 07:46:52;;;;;;;8.10;7.03;;;6.20;99.90;;;;;;4813548;29;20085;-82
2021/12/12 07:49:20;;;;;;;9.57;7.97;;;6.20;99.90;;;;;;4814155;29;20055;-80
2021/12/12 07:51:46;;;;;;;9.20;7.55;;;6.20;99.90;;;;;;4801627;29;20082;-84
2021/12/12 07:54:12;;;;;;;8.32;7.43;;;6.20;99.90;;;;;;4815221;29;20151;-84
2021/12/12 07:56:41;;;;;;;8.68;7.47;;;6.30;99.90;;;;;;4801931;29;20070;-84
2021/12/12 07:59:08;;;;;;;9.60;7.72;;;6.30;99.90;;;;;;4818494;29;20579;-83
2021/12/12 08:01:36;;;;;;;9.25;7.40;;;6.40;99.90;;;;;;4811288;29;20046;-84
2021/12/12 08:04:03;;;;;;;9.65;7.90;;;6.30;99.90;;;;;;4814018;29;20034;-83
2021/12/12 08:06:30;;;;;;;10.10;8.57;;;6.30;99.90;;;;;;4829296;29;20043;-84
2021/12/12 08:08:56;;;;;;;10.30;8.65;;;6.40;99.90;;;;;;4820244;29;20400;-84
2021/12/12 08:11:26;;;;;;;10.52;8.82;;;6.40;99.90;;;;;;4818933;29;20043;-84
2021/12/12 08:13:52;;;;;;;10.30;8.68;;;6.50;99.90;;;;;;4793520;29;20047;-85
2021/12/12 08:16:18;;;;;;;9.52;7.78;;;6.50;99.90;;;;;;4795301;29;20051;-84
2021/12/12 08:18:44;;;;;;;10.32;8.70;;;6.50;99.90;;;;;;4816416;29;20045;-84
2021/12/12 08:21:11;;;;;;;9.95;8.27;;;6.50;99.90;;;;;;4819323;29;20045;-84
2021/12/12 08:23:38;;;;;;;9.45;7.93;;;6.50;99.90;;;;;;4822008;29;20065;-84
2021/12/12 08:26:05;;;;;;;9.43;7.43;;;6.50;99.90;;;;;;4807921;29;20050;-85
2021/12/12 08:28:31;;;;;;;9.18;7.40;;;6.50;99.90;;;;;;4838725;29;20054;-86
2021/12/12 08:30:58;;;;;;;9.95;8.18;;;6.50;99.90;;;;;;4821331;29;20481;-84
2021/12/12 08:33:26;;;;;;;9.60;8.18;;;6.50;99.90;;;;;;4806237;29;20084;-84
2021/12/12 08:35:52;;;;;;;12.90;9.75;;;6.50;99.90;;;;;;4806356;29;20053;-85
2021/12/12 08:38:18;;;;;;;10.85;8.98;;;6.60;99.90;;;;;;4802756;29;20084;-84
2021/12/12 08:40:49;;;;;;;12.27;9.65;;;6.60;99.90;;;;;;4805482;29;20038;-85
2021/12/12 08:43:17;;;;;;;12.05;9.68;;;6.60;99.90;;;;;;4804231;29;20110;-85
2021/12/12 08:45:47;;;;;;;13.60;10.00;;;6.60;99.90;;;;;;4818898;29;20050;-83
2021/12/12 08:48:16;;;;;;;13.40;9.70;;;6.60;99.90;;;;;;4822331;29;20083;-84
2021/12/12 08:50:50;;;;;;;13.00;10.50;;;6.60;99.90;;;;;;4818921;29;20047;-84
2021/12/12 08:53:18;;;;;;;13.05;9.80;;;6.60;99.90;;;;;;4822872;29;20057;-83
2021/12/12 08:55:48;;;;;;;12.73;9.98;;;6.70;99.90;;;;;;4803433;29;20050;-83
2021/12/12 08:58:23;;;;;;;12.23;9.57;;;6.80;99.90;;;;;;4823898;29;20052;-83
2021/12/12 09:01:00;;;;;;;11.77;9.13;;;6.80;99.90;;;;;;4801408;29;20053;-83
2021/12/12 09:03:25;;;;;;;;;;;6.80;99.90;;;;;;4819639;29;20050;-83
2021/12/12 09:05:52;;;;;;;14.32;10.50;;;6.80;99.90;;;;;;4820273;29;19921;-83
2021/12/12 09:08:28;;;;;;;14.43;11.20;;;6.80;99.90;;;;;;4800211;29;20034;-83
2021/12/12 09:11:05;;;;;;;13.63;10.40;;;6.90;99.90;;;;;;4806938;29;20068;-83
2021/12/12 09:13:47;;;;;;;13.38;10.13;;;7.00;99.90;;;;;;4822242;29;20050;-83
2021/12/12 09:16:26;;;;;;;16.63;12.00;;;6.90;99.90;;;;;;4822145;29;20086;-84
2021/12/12 09:19:01;;;;;;;15.68;11.88;;;7.00;99.90;;;;;;4805778;29;20125;-84
2021/12/12 09:21:36;;;;;;;17.55;11.98;;;7.10;99.90;;;;;;4832868;29;20050;-84
2021/12/12 09:24:43;;;;;;;16.13;12.13;;;7.10;99.90;;;;;;4828125;29;20060;-84
2021/12/12 09:27:17;;;;;;;16.60;11.93;;;7.20;99.90;;;;;;4833402;29;20392;-84
2021/12/12 09:29:53;;;;;;;19.13;13.35;;;7.10;99.90;;;;;;4841019;29;20053;-84
2021/12/12 09:32:28;;;;;;;16.27;12.27;;;7.10;99.90;;;;;;4826579;29;20434;-82
2021/12/12 09:35:24;;;;;;;18.98;13.80;;;7.20;99.90;;;;;;4827946;29;20138;-82
2021/12/12 09:38:09;;;;;;;18.17;12.85;;;7.30;99.90;;;;;;4829851;29;20073;-84
2021/12/12 09:41:13;;;;;;;18.75;12.98;;;7.30;99.90;;;;;;4833333;29;20049;-86
2021/12/12 09:43:49;;;;;;;20.10;14.00;;;7.40;99.90;;;;;;4823145;29;20069;-85
2021/12/12 09:46:55;;;;;;;21.25;14.65;;;7.40;99.90;;;;;;4845104;29;20080;-85
2021/12/12 09:52:57;;;;;;;22.35;14.85;;;7.50;99.90;;;;;;4844950;29;20049;-85
2021/12/12 09:55:41;;;;;;;19.92;12.60;;;7.50;99.90;;;;;;4843505;29;20401;-85
2021/12/12 09:58:31;;;;;;;23.80;15.85;;;7.50;99.90;;;;;;4835527;29;20043;-84
2021/12/12 10:01:17;;;;;;;25.10;16.20;;;7.60;99.90;;;;;;4812072;29;20141;-84
2021/12/12 10:04:14;;;;;;;21.13;15.00;;;7.60;99.90;;;;;;4822254;29;20129;-84
2021/12/12 10:07:10;;;;;;;24.50;17.13;;;7.70;99.90;;;;;;4837762;29;20442;-84
2021/12/12 10:09:44;;;;;;;23.88;15.38;;;7.80;99.90;;;;;;4816658;29;20133;-84
2021/12/12 10:12:16;;;;;;;25.17;16.35;;;7.80;99.90;;;;;;4818589;29;20042;-84
2021/12/12 10:14:53;;;;;;;24.08;15.13;;;7.90;99.90;;;;;;4822166;29;20050;-83
2021/12/12 10:17:31;;;;;;;25.30;15.40;;;7.80;99.90;;;;;;4808612;29;20061;-84
2021/12/12 10:20:11;;;;;;;25.65;16.85;;;7.90;99.90;;;;;;4802733;29;20822;-84
2021/12/12 10:22:56;;;;;;;20.13;13.98;;;8.00;99.90;;;;;;4810986;29;20521;-84
2021/12/12 10:25:29;;;;;;;26.40;15.95;;;8.00;99.90;;;;;;4817762;29;20053;-84
2021/12/12 10:28:06;;;;;;;24.00;15.60;;;8.10;99.90;;;;;;4809305;29;20097;-84
2021/12/12 10:30:38;;;;;;;23.20;14.73;;;8.00;99.90;;;;;;4801894;29;20133;-84
2021/12/12 10:33:16;;;;;;;24.45;15.93;;;8.10;99.90;;;;;;4808281;29;20108;-83
2021/12/12 10:36:02;;;;;;;23.27;15.63;;;8.10;99.90;;;;;;4823366;29;20057;-82
2021/12/12 10:38:37;;;;;;;21.38;14.10;;;8.20;99.90;;;;;;4817564;29;20050;-80
2021/12/12 10:41:15;;;;;;;26.35;15.68;;;8.20;99.90;;;;;;4813291;29;20070;-81
2021/12/12 10:44:04;;;;;;;20.95;14.65;;;8.20;99.90;;;;;;4814511;29;20080;-82
2021/12/12 10:46:36;;;;;;;22.75;15.98;;;8.20;99.90;;;;;;4808395;29;20191;-82
2021/12/12 10:49:17;;;;;;;22.45;15.25;;;8.30;99.90;;;;;;4821085;29;20046;-82
2021/12/12 10:51:55;;;;;;;24.08;15.75;;;8.30;99.90;;;;;;4807524;29;20118;-81
2021/12/12 10:54:32;;;;;;;24.10;16.02;;;8.30;99.90;;;;;;4801774;29;20108;-81
2021/12/12 10:56:58;;;;;;;;;;;8.30;99.90;;;;;;4808026;29;20121;-82
2021/12/12 10:59:35;;;;;;;22.60;14.30;;;8.40;99.90;;;;;;4814457;29;20004;-82
2021/12/12 11:02:08;;;;;;;21.52;14.02;;;8.40;99.90;;;;;;4807383;29;20562;-81
2021/12/12 11:04:42;;;;;;;22.80;14.88;;;8.40;99.90;;;;;;4818825;29;20095;-80
2021/12/12 11:07:22;;;;;;;22.45;15.23;;;8.40;99.90;;;;;;4817704;29;20057;-82
2021/12/12 11:10:05;;;;;;;22.77;14.25;;;8.40;99.90;;;;;;4815926;29;20050;-82
2021/12/12 11:12:45;;;;;;;20.45;13.73;;;8.50;99.90;;;;;;4804293;29;20459;-83
2021/12/12 11:15:13;;;;;;;18.90;13.07;;;8.50;99.90;;;;;;4822571;29;20061;-85
2021/12/12 11:17:43;;;;;;;20.42;12.90;;;8.50;99.90;;;;;;4822050;29;20640;-83
2021/12/12 11:20:48;;;;;;;19.67;13.30;;;8.50;99.90;;;;;;4822436;29;20038;-82
2021/12/12 11:23:15;;;;;;;17.85;12.88;;;8.50;99.90;;;;;;4794975;29;20050;-82
2021/12/12 11:25:46;;;;;;;18.73;11.65;;;8.60;99.90;;;;;;4822153;29;20046;-83
2021/12/12 11:28:19;;;;;;;18.85;13.52;;;8.70;99.90;;;;;;4803366;29;20042;-83
2021/12/12 11:30:59;;;;;;;17.73;12.20;;;8.80;99.90;;;;;;4815541;29;20191;-82
2021/12/12 11:33:27;;;;;;;16.33;11.13;;;8.80;99.90;;;;;;4825727;29;20520;-82
2021/12/12 11:35:56;;;;;;;17.67;12.65;;;8.80;99.90;;;;;;4827445;29;20050;-84
2021/12/12 11:38:36;;;;;;;17.65;12.50;;;8.80;99.90;;;;;;4832071;29;20054;-83
2021/12/12 11:41:29;;;;;;;17.95;12.02;;;8.90;99.90;;;;;;4821571;29;20050;-84
2021/12/12 11:44:08;;;;;;;16.52;11.48;;;8.90;99.90;;;;;;4826554;29;20049;-83
2021/12/12 11:47:03;;;;;;;18.35;12.73;;;8.90;99.90;;;;;;4811440;29;20046;-83
2021/12/12 11:49:58;;;;;;;14.90;10.48;;;8.90;99.90;;;;;;4819432;29;20561;-83
2021/12/12 11:52:43;;;;;;;16.98;11.95;;;8.90;99.90;;;;;;4811474;29;20042;-83
2021/12/12 11:55:37;;;;;;;17.05;11.95;;;8.90;99.90;;;;;;4832245;29;20047;-82
2021/12/12 11:58:29;;;;;;;14.82;11.20;;;8.90;99.90;;;;;;4821527;29;20051;-83
2021/12/12 12:01:18;;;;;;;16.60;11.52;;;8.90;99.90;;;;;;4792151;29;20049;-82
2021/12/12 12:04:12;;;;;;;17.40;11.55;;;9.00;99.90;;;;;;4822322;29;20519;-83
2021/12/12 12:06:50;;;;;;;15.63;10.90;;;9.00;99.90;;;;;;4816999;29;20056;-83
2021/12/12 12:09:34;;;;;;;16.15;11.40;;;9.10;99.90;;;;;;4823183;29;20042;-84
2021/12/12 12:12:19;;;;;;;15.88;10.90;;;9.00;99.90;;;;;;4823071;29;20055;-83
2021/12/12 12:14:56;;;;;;;13.75;10.63;;;9.10;99.90;;;;;;4801617;29;20050;-83
2021/12/12 12:18:03;;;;;;;14.43;11.07;;;9.10;99.90;;;;;;4836308;29;20074;-83
2021/12/12 12:20:59;;;;;;;14.52;9.93;;;9.10;99.90;;;;;;4823014;29;20123;-85
2021/12/12 12:26:55;;;;;;;12.13;9.40;;;9.20;99.90;;;;;;4821175;29;20050;-84
2021/12/12 12:29:21;;;;;;;13.27;9.88;;;9.20;99.90;;;;;;4821385;29;20068;-85
2021/12/12 12:32:26;;;;;;;12.95;9.43;;;9.10;99.90;;;;;;4806279;29;20232;-85
2021/12/12 12:35:19;;;;;;;12.52;9.35;;;9.20;99.90;;;;;;4805676;29;20523;-85
2021/12/12 12:38:16;;;;;;;12.23;9.07;;;9.30;99.90;;;;;;4821410;29;20057;-85
2021/12/12 12:41:09;;;;;;;11.63;8.35;;;9.30;99.90;;;;;;4805421;29;20046;-84
2021/12/12 12:44:12;;;;;;;13.57;9.13;;;9.30;99.90;;;;;;4805200;29;20062;-83
2021/12/12 12:47:12;;;;;;;12.52;8.70;;;9.40;99.90;;;;;;4820313;29;20050;-83
2021/12/12 12:50:03;;;;;;;11.57;8.32;;;9.40;99.90;;;;;;4820421;29;20151;-84
2021/12/12 12:53:04;;;;;;;12.10;8.65;;;9.40;99.90;;;;;;4835315;29;20062;-83
2021/12/12 12:56:18;;;;;;;10.63;7.93;;;9.40;99.90;;;;;;4835399;29;20515;-83
2021/12/12 12:58:56;;;;;;;9.70;7.28;;;9.50;99.90;;;;;;4820364;29;20046;-83
2021/12/12 13:02:00;;;;;;;11.25;7.65;;;9.50;99.90;;;;;;4820214;29;20046;-83
2021/12/12 13:04:33;;;;;;;8.90;7.38;;;9.40;99.90;;;;;;4835182;29;20065;-83
2021/12/12 13:07:15;;;;;;;9.90;7.55;;;9.50;99.90;;;;;;4820380;29;20065;-83
2021/12/12 13:10:03;;;;;;;9.68;7.57;;;9.40;99.90;;;;;;4835401;29;20121;-83
2021/12/12 13:12:29;;;;;;;9.30;7.40;;;9.50;99.90;;;;;;4820333;29;20085;-83
2021/12/12 13:15:23;;;;;;;9.45;7.03;;;9.50;99.90;;;;;;4820230;29;20477;-83
2021/12/12 13:18:07;;;;;;;8.07;6.00;;;9.50;99.90;;;;;;4835695;29;20384;-83
2021/12/12 13:20:47;;;;;;;8.45;6.70;;;9.50;99.90;;;;;;4820203;29;20496;-83
2021/12/12 13:23:26;;;;;;;10.50;7.20;;;9.50;99.90;;;;;;4819916;29;20057;-82
2021/12/12 13:26:01;;;;;;;10.15;7.13;;;9.50;99.90;;;;;;4804999;29;20054;-82
2021/12/12 13:28:52;;;;;;;9.32;7.00;;;9.50;99.90;;;;;;4804849;29;20046;-83
2021/12/12 13:31:27;;;;;;;8.85;6.70;;;9.60;99.90;;;;;;4820369;29;20199;-83
2021/12/12 13:34:17;;;;;;;7.50;5.82;;;9.60;99.90;;;;;;4804894;29;20054;-83
2021/12/12 13:37:05;;;;;;;9.20;7.43;;;9.60;99.90;;;;;;4820279;29;20051;-83
2021/12/12 13:40:07;;;;;;;8.05;6.40;;;9.60;99.90;;;;;;4835238;29;20066;-83
2021/12/12 13:43:06;;;;;;;9.00;7.10;;;9.70;99.90;;;;;;4810447;29;20446;-83
2021/12/12 13:45:37;;;;;;;8.43;7.10;;;9.70;99.90;;;;;;4819799;29;20047;-83
2021/12/12 13:48:40;;;;;;;8.73;7.25;;;9.70;99.90;;;;;;4804743;29;20134;-83